createdAt,value
2023-03-30T00:00:58.504Z,8.38
2023-03-30T00:03:27.197Z,8.63
2023-03-30T00:05:57.739Z,8.02
2023-03-30T00:08:28.810Z,5.53
2023-03-30T00:11:11.752Z,8.60
2023-03-30T00:13:38.612Z,8.07
2023-03-30T00:16:06.943Z,6.20
2023-03-30T00:18:34.394Z,8.73
2023-03-30T00:21:05.136Z,6.00
2023-03-30T00:23:32.308Z,8.55
2023-03-30T00:25:59.177Z,6.00
2023-03-30T00:28:30.959Z,4.90
2023-03-30T00:30:58.907Z,7.50
2023-03-30T00:33:41.361Z,7.93
2023-03-30T00:36:08.950Z,8.20
2023-03-30T00:38:35.676Z,8.20
2023-03-30T00:41:02.571Z,7.35
2023-03-30T00:43:29.576Z,9.38
2023-03-30T00:45:57.457Z,8.80
2023-03-30T00:48:34.485Z,7.57
2023-03-30T00:51:11.160Z,5.57
2023-03-30T00:53:41.483Z,7.53
2023-03-30T00:56:10.538Z,6.15
2023-03-30T00:58:39.624Z,5.13
2023-03-30T01:01:10.405Z,8.40
2023-03-30T01:03:43.605Z,4.82
2023-03-30T01:06:12.046Z,5.28
2023-03-30T01:08:40.960Z,9.32
2023-03-30T01:11:08.281Z,5.03
2023-03-30T01:13:38.207Z,7.43
2023-03-30T01:16:36.017Z,8.48
2023-03-30T01:19:29.425Z,9.40
2023-03-30T01:22:30.942Z,7.32
2023-03-30T01:25:23.986Z,10.68
2023-03-30T01:28:18.549Z,14.25
2023-03-30T01:31:00.530Z,7.45
2023-03-30T01:33:32.357Z,7.18
2023-03-30T01:36:36.615Z,7.45
2023-03-30T01:39:22.317Z,7.35
2023-03-30T01:44:45.919Z,9.27
2023-03-30T01:47:28.567Z,7.13
2023-03-30T01:49:58.239Z,8.18
2023-03-30T01:52:32.575Z,9.38
2023-03-30T01:55:10.132Z,4.73
2023-03-30T01:58:00.332Z,7.93
2023-03-30T02:00:28.712Z,6.88
2023-03-30T02:03:02.529Z,5.10
2023-03-30T02:05:30.749Z,7.03
2023-03-30T02:08:03.511Z,6.20
2023-03-30T02:10:33.700Z,5.93
2023-03-30T02:13:00.984Z,6.90
2023-03-30T02:15:41.971Z,10.07
2023-03-30T02:18:09.896Z,6.57
2023-03-30T02:20:37.070Z,8.45
2023-03-30T02:23:05.968Z,7.53
2023-03-30T02:25:38.278Z,6.40
2023-03-30T02:28:07.474Z,9.32
2023-03-30T02:30:35.288Z,8.43
2023-03-30T02:33:02.528Z,10.65
2023-03-30T02:35:57.854Z,8.68
2023-03-30T02:39:05.942Z,6.75
2023-03-30T02:42:10.076Z,6.82
2023-03-30T02:44:51.700Z,6.57
2023-03-30T02:47:31.972Z,9.65
2023-03-30T02:50:22.070Z,8.75
2023-03-30T02:52:59.084Z,7.57
2023-03-30T02:55:34.460Z,9.45
2023-03-30T02:58:18.506Z,6.47
2023-03-30T03:01:01.780Z,6.55
2023-03-30T03:03:39.298Z,7.93
2023-03-30T03:06:09.271Z,10.38
2023-03-30T03:08:39.644Z,6.60
2023-03-30T03:11:09.644Z,8.25
2023-03-30T03:13:37.242Z,11.20
2023-03-30T03:16:05.299Z,7.25
2023-03-30T03:18:32.049Z,8.55
2023-03-30T03:20:59.208Z,8.43
2023-03-30T03:23:25.975Z,6.65
2023-03-30T03:25:52.858Z,7.00
2023-03-30T03:28:19.564Z,9.65
2023-03-30T03:30:46.255Z,10.50
2023-03-30T03:33:12.933Z,8.57
2023-03-30T03:35:40.176Z,11.43
2023-03-30T03:38:07.779Z,7.45
2023-03-30T03:40:34.462Z,7.30
2023-03-30T03:43:00.988Z,7.55
2023-03-30T03:45:27.543Z,10.25
2023-03-30T03:47:54.632Z,5.82
2023-03-30T03:50:21.818Z,6.65
2023-03-30T03:52:48.379Z,7.07
2023-03-30T03:55:15.101Z,8.07
2023-03-30T03:57:41.836Z,7.78
2023-03-30T04:00:16.289Z,8.77
2023-03-30T04:02:44.171Z,11.90
2023-03-30T04:05:11.567Z,9.60
2023-03-30T04:07:38.572Z,10.40
2023-03-30T04:10:06.446Z,10.02
2023-03-30T04:12:33.133Z,13.02
2023-03-30T04:14:59.708Z,9.15
2023-03-30T04:17:26.730Z,13.55
2023-03-30T04:19:56.358Z,7.95
2023-03-30T04:22:26.421Z,11.32
2023-03-30T04:24:53.877Z,11.60
2023-03-30T04:27:20.448Z,12.90
2023-03-30T04:29:47.012Z,11.75
2023-03-30T04:32:13.724Z,11.02
2023-03-30T04:34:43.066Z,11.05
2023-03-30T04:37:10.291Z,10.73
2023-03-30T04:39:37.361Z,11.35
2023-03-30T04:42:06.075Z,10.95
2023-03-30T04:44:32.697Z,11.50
2023-03-30T04:46:59.308Z,6.93
2023-03-30T04:49:27.406Z,18.55
2023-03-30T04:51:54.631Z,12.75
2023-03-30T04:54:21.356Z,12.82
2023-03-30T04:56:48.069Z,15.85
2023-03-30T04:59:14.698Z,12.18
2023-03-30T05:01:41.380Z,12.73
2023-03-30T05:04:08.335Z,10.02
2023-03-30T05:06:34.960Z,12.10
2023-03-30T05:09:01.562Z,12.18
2023-03-30T05:11:28.341Z,8.40
2023-03-30T05:13:54.993Z,12.65
2023-03-30T05:16:22.197Z,12.00
2023-03-30T05:18:51.346Z,13.50
2023-03-30T05:21:18.328Z,13.02
2023-03-30T05:23:44.988Z,7.85
2023-03-30T05:26:11.714Z,9.23
2023-03-30T05:28:38.481Z,13.77
2023-03-30T05:31:05.542Z,12.60
2023-03-30T05:33:32.375Z,9.25
2023-03-30T05:35:58.993Z,13.40
2023-03-30T05:38:25.827Z,8.50
2023-03-30T05:40:54.023Z,13.40
2023-03-30T05:43:21.267Z,12.40
2023-03-30T05:45:48.261Z,13.05
2023-03-30T05:48:15.184Z,11.05
2023-03-30T05:50:42.812Z,12.38
2023-03-30T05:53:09.496Z,14.20
2023-03-30T05:55:36.157Z,7.50
2023-03-30T05:58:03.853Z,13.38
2023-03-30T06:00:33.359Z,13.90
2023-03-30T06:03:00.378Z,8.98
2023-03-30T06:05:27.384Z,12.02
2023-03-30T06:07:54.323Z,13.93
2023-03-30T06:10:21.274Z,10.18
2023-03-30T06:12:47.841Z,12.80
2023-03-30T06:15:14.430Z,10.23
2023-03-30T06:17:41.007Z,16.35
2023-03-30T06:20:11.259Z,13.02
2023-03-30T06:22:41.509Z,17.02
2023-03-30T06:25:09.162Z,13.18
2023-03-30T06:27:37.166Z,11.73
2023-03-30T06:30:04.248Z,12.88
2023-03-30T06:32:30.895Z,17.02
2023-03-30T06:34:57.660Z,16.40
2023-03-30T06:37:24.377Z,16.77
2023-03-30T06:39:51.062Z,16.65
2023-03-30T06:42:17.682Z,11.15
2023-03-30T06:44:44.556Z,13.32
2023-03-30T06:47:11.199Z,14.35
2023-03-30T06:49:37.783Z,17.45
2023-03-30T06:52:05.681Z,12.02
2023-03-30T06:54:34.215Z,14.13
2023-03-30T06:57:01.128Z,15.20
2023-03-30T06:59:27.672Z,15.63
2023-03-30T07:01:54.404Z,11.48
2023-03-30T07:04:21.932Z,10.02
2023-03-30T07:06:48.608Z,10.75
2023-03-30T07:09:15.202Z,10.57
2023-03-30T07:11:41.900Z,14.27
2023-03-30T07:14:10.008Z,11.30
2023-03-30T07:16:36.847Z,6.78
2023-03-30T07:19:03.777Z,10.45
2023-03-30T07:21:30.516Z,10.43
2023-03-30T07:23:58.007Z,9.45
2023-03-30T07:26:24.586Z,10.15
2023-03-30T07:28:51.281Z,11.80
2023-03-30T07:31:19.918Z,14.90
2023-03-30T07:33:46.771Z,9.55
2023-03-30T07:36:13.597Z,11.70
2023-03-30T07:38:40.429Z,10.60
2023-03-30T07:41:12.688Z,8.80
2023-03-30T07:43:42.583Z,11.63
2023-03-30T07:46:12.025Z,9.23
2023-03-30T07:48:40.286Z,10.35
2023-03-30T07:51:10.107Z,12.02
2023-03-30T07:53:37.738Z,12.38
2023-03-30T07:56:04.876Z,9.13
2023-03-30T07:58:31.891Z,7.88
2023-03-30T08:00:58.652Z,7.72
2023-03-30T08:03:25.464Z,9.75
2023-03-30T08:05:56.522Z,9.15
2023-03-30T08:08:23.586Z,7.28
2023-03-30T08:10:50.775Z,8.35
2023-03-30T08:13:18.293Z,8.65
2023-03-30T08:15:47.028Z,6.97
2023-03-30T08:18:14.747Z,8.88
2023-03-30T08:20:43.129Z,10.43
2023-03-30T08:23:11.301Z,6.68
2023-03-30T08:25:38.516Z,9.07
2023-03-30T08:28:08.920Z,7.20
2023-03-30T08:30:35.603Z,8.32
2023-03-30T08:33:02.928Z,11.38
2023-03-30T08:35:29.585Z,9.45
2023-03-30T08:37:56.195Z,6.80
2023-03-30T08:40:23.141Z,10.50
2023-03-30T08:43:06.118Z,6.70
2023-03-30T08:45:43.058Z,8.07
2023-03-30T08:48:22.796Z,10.05
2023-03-30T08:51:05.776Z,6.07
2023-03-30T08:53:34.051Z,5.88
2023-03-30T08:56:21.660Z,8.02
2023-03-30T08:59:06.776Z,7.78
2023-03-30T09:01:48.612Z,8.20
2023-03-30T09:04:23.507Z,5.85
2023-03-30T09:06:53.646Z,10.35
2023-03-30T09:09:23.191Z,7.72
2023-03-30T09:12:15.994Z,7.55
2023-03-30T09:14:51.218Z,6.70
2023-03-30T09:20:25.363Z,6.75
2023-03-30T09:22:54.069Z,7.40
2023-03-30T09:25:38.607Z,7.95
2023-03-30T09:28:38.588Z,6.32
2023-03-30T09:31:38.036Z,7.40
2023-03-30T09:34:12.869Z,4.82
2023-03-30T09:36:54.786Z,7.05
2023-03-30T09:39:23.983Z,8.70
2023-03-30T09:42:15.101Z,6.18
2023-03-30T09:45:13.581Z,6.03
2023-03-30T09:47:43.481Z,6.22
2023-03-30T09:50:16.677Z,7.32
2023-03-30T09:52:59.936Z,7.30
2023-03-30T09:55:29.817Z,6.53
2023-03-30T09:58:10.913Z,7.10
2023-03-30T10:00:37.977Z,9.25
2023-03-30T10:03:07.063Z,5.68
2023-03-30T10:05:38.418Z,7.35
2023-03-30T10:08:25.000Z,7.13
2023-03-30T10:10:56.734Z,8.30
2023-03-30T10:13:37.515Z,5.70
2023-03-30T10:16:08.015Z,8.32
2023-03-30T10:18:41.386Z,6.80
2023-03-30T10:21:18.713Z,8.80
2023-03-30T10:23:47.216Z,6.65
2023-03-30T10:26:21.811Z,10.10
2023-03-30T10:29:04.523Z,6.50
2023-03-30T10:31:36.112Z,10.13
2023-03-30T10:34:05.298Z,7.20
2023-03-30T10:36:38.200Z,5.32
2023-03-30T10:39:27.623Z,9.88
2023-03-30T10:41:57.942Z,7.18
2023-03-30T10:44:30.586Z,8.93
2023-03-30T10:47:38.327Z,6.95
2023-03-30T10:50:25.781Z,9.45
2023-03-30T10:53:12.320Z,8.20
2023-03-30T10:55:51.131Z,5.88
2023-03-30T10:59:16.020Z,9.73
2023-03-30T11:02:14.391Z,7.13
2023-03-30T11:04:50.462Z,4.93
2023-03-30T11:07:29.805Z,10.82
2023-03-30T11:10:04.524Z,8.27
2023-03-30T11:12:39.336Z,8.57
2023-03-30T11:15:14.867Z,8.88
2023-03-30T11:17:48.229Z,7.00
2023-03-30T11:20:27.282Z,4.05
2023-03-30T11:23:01.284Z,9.20
2023-03-30T11:25:36.363Z,6.13
2023-03-30T11:28:25.897Z,8.55
2023-03-30T11:30:58.502Z,6.03
2023-03-30T11:33:39.668Z,4.78
2023-03-30T11:36:21.806Z,8.05
2023-03-30T11:39:03.916Z,9.15
2023-03-30T11:41:42.463Z,4.53
2023-03-30T11:44:13.698Z,7.72
2023-03-30T11:47:14.865Z,6.68
2023-03-30T11:49:56.683Z,6.22
2023-03-30T11:52:35.514Z,4.60
2023-03-30T11:55:29.695Z,6.70
2023-03-30T11:58:34.722Z,5.00
2023-03-30T12:01:15.776Z,4.50
2023-03-30T12:03:51.468Z,7.18
2023-03-30T12:06:49.703Z,4.93
2023-03-30T12:09:38.875Z,7.20
2023-03-30T12:12:33.513Z,6.68
2023-03-30T12:15:29.927Z,6.28
2023-03-30T12:18:20.054Z,9.30
2023-03-30T12:20:55.519Z,4.65
2023-03-30T12:23:33.512Z,4.55
2023-03-30T12:26:25.127Z,6.32
2023-03-30T12:31:49.765Z,8.75
2023-03-30T12:34:16.850Z,8.27
2023-03-30T12:36:49.304Z,6.63
2023-03-30T12:39:31.856Z,5.35
2023-03-30T12:42:34.527Z,5.85
2023-03-30T12:45:01.575Z,6.75
2023-03-30T12:47:33.706Z,3.33
2023-03-30T12:50:20.942Z,6.38
2023-03-30T12:53:05.382Z,7.63
2023-03-30T12:55:40.065Z,5.25
2023-03-30T12:58:26.623Z,2.90
2023-03-30T13:01:05.508Z,7.57
2023-03-30T13:03:36.174Z,5.07
2023-03-30T13:06:05.449Z,4.63
2023-03-30T13:08:38.943Z,4.97
2023-03-30T13:11:11.836Z,4.55
2023-03-30T13:13:55.738Z,6.70
2023-03-30T13:16:57.770Z,4.82
2023-03-30T13:19:33.463Z,4.30
2023-03-30T13:22:12.042Z,4.75
2023-03-30T13:24:57.766Z,5.88
2023-03-30T13:27:31.557Z,3.63
2023-03-30T13:29:59.560Z,4.35
2023-03-30T13:33:12.015Z,3.83
2023-03-30T13:36:06.119Z,2.90
2023-03-30T13:38:56.431Z,3.67
2023-03-30T13:41:42.788Z,4.40
2023-03-30T13:44:39.577Z,2.08
2023-03-30T13:47:28.030Z,6.43
2023-03-30T13:49:59.927Z,2.78
2023-03-30T13:52:38.330Z,5.30
2023-03-30T13:55:15.884Z,3.70
2023-03-30T13:57:44.101Z,3.42
2023-03-30T14:00:47.299Z,3.20
2023-03-30T14:03:47.864Z,2.30
2023-03-30T14:06:14.610Z,3.42
2023-03-30T14:08:44.855Z,3.40
2023-03-30T14:11:14.173Z,3.00
2023-03-30T14:13:41.180Z,1.95
2023-03-30T14:16:09.314Z,3.25
2023-03-30T14:18:36.071Z,4.00
2023-03-30T14:21:06.842Z,2.72
2023-03-30T14:23:51.286Z,2.05
2023-03-30T14:26:23.540Z,3.70
2023-03-30T14:28:56.427Z,2.33
2023-03-30T14:31:23.558Z,2.65
2023-03-30T14:33:50.333Z,3.35
2023-03-30T14:36:19.149Z,4.07
2023-03-30T14:38:48.373Z,4.00
2023-03-30T14:41:23.578Z,4.32
2023-03-30T14:46:19.151Z,3.08
2023-03-30T14:48:50.486Z,3.88
2023-03-30T14:51:26.399Z,5.70
2023-03-30T14:53:54.550Z,4.30
2023-03-30T14:56:22.878Z,2.22
2023-03-30T14:58:51.860Z,5.68
2023-03-30T15:01:31.258Z,2.45
2023-03-30T15:04:14.578Z,9.20
2023-03-30T15:06:41.437Z,5.95
2023-03-30T15:09:15.928Z,5.07
2023-03-30T15:11:45.449Z,3.08
2023-03-30T15:14:19.772Z,5.43
2023-03-30T15:16:53.292Z,5.23
2023-03-30T15:19:28.051Z,3.40
2023-03-30T15:21:58.492Z,3.78
2023-03-30T15:24:30.371Z,4.28
2023-03-30T15:27:02.794Z,5.28
2023-03-30T15:29:31.029Z,6.15
2023-03-30T15:32:05.349Z,7.35
2023-03-30T15:34:32.507Z,11.60
2023-03-30T15:36:59.315Z,3.15
2023-03-30T15:39:33.660Z,4.50
2023-03-30T15:42:05.965Z,3.67
2023-03-30T15:44:38.604Z,3.25
2023-03-30T15:47:14.024Z,3.15
2023-03-30T15:49:49.375Z,3.00
2023-03-30T15:52:24.238Z,5.15
2023-03-30T15:54:55.697Z,2.88
2023-03-30T15:57:28.233Z,3.17
2023-03-30T16:00:03.013Z,6.00
2023-03-30T16:02:32.716Z,3.65
2023-03-30T16:05:03.711Z,3.95
2023-03-30T16:07:31.794Z,4.47
2023-03-30T16:09:58.462Z,4.55
2023-03-30T16:12:30.965Z,5.13
2023-03-30T16:14:58.567Z,3.83
2023-03-30T16:17:25.628Z,3.35
2023-03-30T16:19:52.329Z,5.78
2023-03-30T16:22:18.943Z,3.58
2023-03-30T16:24:46.185Z,4.10
2023-03-30T16:27:13.074Z,4.60
2023-03-30T16:29:39.833Z,2.83
2023-03-30T16:32:06.719Z,3.42
2023-03-30T16:34:33.461Z,4.95
2023-03-30T16:37:00.158Z,4.32
2023-03-30T16:39:28.933Z,4.28
2023-03-30T16:41:56.215Z,6.43
2023-03-30T16:44:24.681Z,4.18
2023-03-30T16:46:52.119Z,5.07
2023-03-30T16:49:25.870Z,6.43
2023-03-30T16:51:55.292Z,5.82
2023-03-30T16:54:31.526Z,3.50
2023-03-30T16:56:59.906Z,4.72
2023-03-30T16:59:31.235Z,5.15
2023-03-30T17:01:58.737Z,3.25
2023-03-30T17:04:25.862Z,5.05
2023-03-30T17:06:54.450Z,4.47
2023-03-30T17:09:21.178Z,4.63
2023-03-30T17:11:48.905Z,4.15
2023-03-30T17:14:17.616Z,6.15
2023-03-30T17:16:44.361Z,5.53
2023-03-30T17:19:12.860Z,5.10
2023-03-30T17:21:43.426Z,6.57
2023-03-30T17:24:11.166Z,5.82
2023-03-30T17:26:38.985Z,3.60
2023-03-30T17:29:05.754Z,6.95
2023-03-30T17:31:32.426Z,5.35
2023-03-30T17:34:02.081Z,4.57
2023-03-30T17:36:29.151Z,3.90
2023-03-30T17:38:56.520Z,4.53
2023-03-30T17:41:23.319Z,4.18
2023-03-30T17:43:54.303Z,7.53
2023-03-30T17:46:21.155Z,5.78
2023-03-30T17:48:48.628Z,10.25
2023-03-30T17:51:15.311Z,10.60
2023-03-30T17:53:42.688Z,5.35
2023-03-30T17:56:12.709Z,5.95
2023-03-30T17:58:39.233Z,3.85
2023-03-30T18:01:08.236Z,3.95
2023-03-30T18:03:35.972Z,5.93
2023-03-30T18:06:02.693Z,5.60
2023-03-30T18:08:29.899Z,3.10
2023-03-30T18:11:01.101Z,3.85
2023-03-30T18:13:29.650Z,4.55
2023-03-30T18:15:58.363Z,3.88
2023-03-30T18:18:45.763Z,7.65
2023-03-30T18:21:13.462Z,7.72
2023-03-30T18:23:39.970Z,9.30
2023-03-30T18:26:11.249Z,12.02
2023-03-30T18:28:43.583Z,10.90
2023-03-30T18:31:10.935Z,10.23
2023-03-30T18:33:39.116Z,8.38
2023-03-30T18:36:07.653Z,7.65
2023-03-30T18:38:34.761Z,9.20
2023-03-30T18:41:01.665Z,8.95
2023-03-30T18:43:28.906Z,10.75
2023-03-30T18:46:00.823Z,8.00
2023-03-30T18:48:31.395Z,7.18
2023-03-30T18:50:58.089Z,9.65
2023-03-30T18:53:28.230Z,6.72
2023-03-30T18:56:05.096Z,7.63
2023-03-30T18:58:33.970Z,4.15
2023-03-30T19:01:03.481Z,12.27
2023-03-30T19:03:30.393Z,11.80
2023-03-30T19:05:57.158Z,9.82
2023-03-30T19:08:27.064Z,7.28
2023-03-30T19:10:57.546Z,9.40
2023-03-30T19:13:25.799Z,8.55
2023-03-30T19:15:53.001Z,8.85
2023-03-30T19:18:22.954Z,5.85
2023-03-30T19:20:50.672Z,7.40
2023-03-30T19:23:21.857Z,8.15
2023-03-30T19:25:49.053Z,5.55
2023-03-30T19:28:21.903Z,4.78
2023-03-30T19:30:48.774Z,7.68
2023-03-30T19:33:22.803Z,6.45
2023-03-30T19:35:52.521Z,5.60
2023-03-30T19:38:23.209Z,6.30
2023-03-30T19:40:49.873Z,3.97
2023-03-30T19:43:19.757Z,5.60
2023-03-30T19:45:51.432Z,9.38
2023-03-30T19:48:18.138Z,6.75
2023-03-30T19:50:44.755Z,5.35
2023-03-30T19:53:11.361Z,4.50
2023-03-30T19:55:39.138Z,4.35
2023-03-30T19:58:15.305Z,8.27
2023-03-30T20:00:49.333Z,6.53
2023-03-30T20:03:16.053Z,6.15
2023-03-30T20:05:52.380Z,6.05
2023-03-30T20:08:24.863Z,3.63
2023-03-30T20:10:54.006Z,8.32
2023-03-30T20:13:24.395Z,4.32
2023-03-30T20:15:58.040Z,7.78
2023-03-30T20:18:26.757Z,4.78
2023-03-30T20:20:53.333Z,5.95
2023-03-30T20:23:19.999Z,6.15
2023-03-30T20:25:49.240Z,10.00
2023-03-30T20:28:17.309Z,4.55
2023-03-30T20:30:43.892Z,6.20
2023-03-30T20:33:10.882Z,4.28
2023-03-30T20:35:38.180Z,5.43
2023-03-30T20:38:05.972Z,7.80
2023-03-30T20:40:32.730Z,4.88
2023-03-30T20:43:03.048Z,8.25
2023-03-30T20:45:31.039Z,5.57
2023-03-30T20:47:57.938Z,7.22
2023-03-30T20:50:24.531Z,3.13
2023-03-30T20:52:52.689Z,5.53
2023-03-30T20:55:19.368Z,5.53
2023-03-30T20:57:45.871Z,4.40
2023-03-30T21:00:13.539Z,6.25
2023-03-30T21:02:40.296Z,9.05
2023-03-30T21:05:08.423Z,6.72
2023-03-30T21:07:38.094Z,5.72
2023-03-30T21:10:05.134Z,5.55
2023-03-30T21:12:31.754Z,5.95
2023-03-30T21:14:58.288Z,5.28
2023-03-30T21:17:24.953Z,4.18
2023-03-30T21:19:51.501Z,4.78
2023-03-30T21:22:19.485Z,6.70
2023-03-30T21:24:46.164Z,5.30
2023-03-30T21:27:14.232Z,5.18
2023-03-30T21:29:41.411Z,6.63
2023-03-30T21:32:08.008Z,8.73
2023-03-30T21:34:34.582Z,5.70
2023-03-30T21:37:01.504Z,7.78
2023-03-30T21:39:28.161Z,7.50
2023-03-30T21:41:54.777Z,5.82
2023-03-30T21:44:21.496Z,6.68
2023-03-30T21:46:48.183Z,7.53
2023-03-30T21:49:14.818Z,4.65
2023-03-30T21:51:41.537Z,3.22
2023-03-30T21:54:09.261Z,6.03
2023-03-30T21:56:35.918Z,4.65
2023-03-30T21:59:02.532Z,5.90
2023-03-30T22:01:29.157Z,4.22
2023-03-30T22:03:56.297Z,6.68
2023-03-30T22:06:23.768Z,6.50
2023-03-30T22:08:50.680Z,6.70
2023-03-30T22:11:23.766Z,4.22
2023-03-30T22:13:52.023Z,9.27
2023-03-30T22:16:28.039Z,5.80
2023-03-30T22:18:54.930Z,9.35
2023-03-30T22:21:25.104Z,7.20
2023-03-30T22:23:54.420Z,5.40
2023-03-30T22:26:22.131Z,6.47
2023-03-30T22:28:48.830Z,5.68
2023-03-30T22:31:15.773Z,4.43
2023-03-30T22:33:42.636Z,6.70
2023-03-30T22:36:20.331Z,5.45
2023-03-30T22:38:47.945Z,7.95
2023-03-30T22:41:14.974Z,5.85
2023-03-30T22:43:41.588Z,6.63
2023-03-30T22:46:08.508Z,4.95
2023-03-30T22:48:35.558Z,8.30
2023-03-30T22:51:03.847Z,5.38
2023-03-30T22:53:31.681Z,7.00
2023-03-30T22:55:58.457Z,5.88
2023-03-30T22:58:25.272Z,5.47
2023-03-30T23:00:52.025Z,6.78
2023-03-30T23:03:18.850Z,6.32
2023-03-30T23:05:52.110Z,3.78
2023-03-30T23:08:18.662Z,5.75
2023-03-30T23:10:45.775Z,5.72
2023-03-30T23:13:12.427Z,7.00
2023-03-30T23:15:39.079Z,3.78
2023-03-30T23:18:05.965Z,8.27
2023-03-30T23:20:32.522Z,7.55
2023-03-30T23:22:59.061Z,4.25
2023-03-30T23:25:26.498Z,6.20
2023-03-30T23:27:53.032Z,4.45
2023-03-30T23:30:19.676Z,7.65
2023-03-30T23:32:46.275Z,7.05
2023-03-30T23:35:13.021Z,5.65
2023-03-30T23:37:40.176Z,5.80
2023-03-30T23:40:08.213Z,3.40
2023-03-30T23:42:34.774Z,3.67
2023-03-30T23:45:01.399Z,6.25
2023-03-30T23:47:28.056Z,6.40
2023-03-30T23:49:54.734Z,5.57
2023-03-30T23:52:21.270Z,7.93
2023-03-30T23:54:52.075Z,10.10
2023-03-30T23:57:19.856Z,8.00
2023-03-30T23:59:46.847Z,5.57
